Terminal Aerodrome Forecast
Issued by NWS

Home | Current Version | Previous Version | Text Only | Print | Product List | Glossary On
Versions: 1 2 3 4 5 6 7 8 9 10 11 12 13
000
FTUS44 KTSA 302337
TAFBVO
TAF
KBVO 302337Z 0100/0124 19005KT P6SM SCT080 BKN250
     FM010900 22007KT P6SM BKN150
     FM011500 21011G18KT P6SM BKN150=

USA.gov is the U.S. government's official web portal to all federal, state and local government web resources and services.